createdAt,value
2023-04-19T00:00:47.344Z,4.00
2023-04-19T00:03:14.900Z,2.08
2023-04-19T00:05:42.607Z,1.63
2023-04-19T00:08:09.516Z,1.08
2023-04-19T00:10:36.665Z,3.47
2023-04-19T00:13:03.618Z,3.55
2023-04-19T00:15:44.951Z,1.45
2023-04-19T00:18:24.971Z,1.60
2023-04-19T00:21:11.923Z,1.75
2023-04-19T00:23:52.013Z,1.48
2023-04-19T00:26:38.951Z,3.45
2023-04-19T00:29:25.881Z,1.30
2023-04-19T00:32:06.392Z,1.83
2023-04-19T00:34:52.867Z,0.65
2023-04-19T00:37:39.874Z,3.28
2023-04-19T00:40:27.925Z,2.13
2023-04-19T00:43:18.076Z,1.58
2023-04-19T00:46:04.856Z,1.52
2023-04-19T00:48:45.400Z,2.53
2023-04-19T00:51:31.808Z,6.45
2023-04-19T00:54:19.928Z,3.60
2023-04-19T00:57:06.861Z,3.10
2023-04-19T00:59:47.795Z,4.15
2023-04-19T01:02:34.988Z,5.60
2023-04-19T01:05:15.408Z,3.17
2023-04-19T01:08:01.941Z,4.00
2023-04-19T01:10:48.868Z,3.70
2023-04-19T01:13:35.832Z,3.00
2023-04-19T01:16:22.989Z,4.93
2023-04-19T01:19:02.920Z,3.15
2023-04-19T01:21:50.871Z,2.10
2023-04-19T01:24:31.993Z,2.35
2023-04-19T01:27:20.826Z,3.80
2023-04-19T01:30:01.104Z,4.88
2023-04-19T01:32:47.828Z,2.95
2023-04-19T01:35:34.794Z,2.33
2023-04-19T01:38:22.799Z,2.22
2023-04-19T01:41:02.959Z,6.80
2023-04-19T01:43:49.793Z,2.17
2023-04-19T01:46:36.824Z,6.65
2023-04-19T01:49:25.009Z,6.28
2023-04-19T01:52:04.812Z,2.33
2023-04-19T01:54:54.653Z,2.22
2023-04-19T01:57:36.877Z,2.42
2023-04-19T02:00:24.762Z,1.90
2023-04-19T02:03:11.994Z,2.55
2023-04-19T02:06:00.693Z,2.72
2023-04-19T02:08:41.970Z,3.65
2023-04-19T02:11:28.729Z,4.00
2023-04-19T02:14:11.670Z,6.63
2023-04-19T02:16:58.873Z,2.05
2023-04-19T02:19:45.705Z,2.38
2023-04-19T02:22:26.072Z,2.50
2023-04-19T02:25:12.746Z,3.45
2023-04-19T02:27:53.855Z,4.82
2023-04-19T02:30:40.680Z,3.65
2023-04-19T02:33:33.687Z,9.07
2023-04-19T02:36:13.822Z,3.25
2023-04-19T02:39:02.662Z,1.50
2023-04-19T02:41:58.721Z,2.33
2023-04-19T02:44:45.910Z,12.55
2023-04-19T02:47:32.787Z,3.22
2023-04-19T02:50:14.084Z,8.55
2023-04-19T02:53:03.685Z,7.93
2023-04-19T02:55:44.017Z,3.15
2023-04-19T02:58:32.762Z,6.28
2023-04-19T03:01:13.306Z,38.22
2023-04-19T03:03:59.812Z,7.53
2023-04-19T03:06:46.781Z,1.73
2023-04-19T03:09:28.816Z,6.22
2023-04-19T03:12:16.591Z,1.85
2023-04-19T03:15:03.648Z,2.40
2023-04-19T03:17:44.106Z,3.72
2023-04-19T03:20:32.653Z,4.40
2023-04-19T03:23:12.986Z,5.07
2023-04-19T03:26:00.651Z,4.70
2023-04-19T03:28:48.595Z,1.98
2023-04-19T03:31:39.788Z,3.92
2023-04-19T03:34:20.087Z,2.75
2023-04-19T03:37:08.572Z,1.55
2023-04-19T03:39:51.111Z,2.35
2023-04-19T03:42:47.675Z,5.97
2023-04-19T03:45:44.705Z,3.53
2023-04-19T03:48:24.690Z,2.95
2023-04-19T03:51:11.597Z,3.70
2023-04-19T03:53:51.706Z,2.00
2023-04-19T03:56:38.593Z,2.28
2023-04-19T03:59:19.737Z,4.70
2023-04-19T04:02:13.675Z,4.30
2023-04-19T04:04:55.228Z,2.95
2023-04-19T04:07:42.621Z,1.80
2023-04-19T04:10:22.974Z,3.67
2023-04-19T04:13:09.533Z,7.03
2023-04-19T04:15:55.911Z,1.98
2023-04-19T04:18:42.603Z,4.95
2023-04-19T04:21:24.359Z,2.30
2023-04-19T04:24:14.740Z,3.55
2023-04-19T04:27:12.271Z,1.92
2023-04-19T04:29:59.660Z,4.10
2023-04-19T04:32:41.181Z,5.97
2023-04-19T04:35:28.531Z,3.90
2023-04-19T04:38:24.130Z,3.40
2023-04-19T04:41:12.545Z,3.17
2023-04-19T04:44:12.103Z,2.65
2023-04-19T04:46:53.588Z,1.55
2023-04-19T04:49:42.553Z,1.73
2023-04-19T04:52:31.572Z,3.15
2023-04-19T04:55:24.524Z,1.08
2023-04-19T04:58:05.914Z,1.60
2023-04-19T05:01:12.519Z,0.60
2023-04-19T05:03:53.712Z,1.58
2023-04-19T05:06:40.548Z,3.08
2023-04-19T05:09:27.609Z,0.70
2023-04-19T05:12:14.577Z,1.20
2023-04-19T05:15:01.534Z,1.15
2023-04-19T05:17:43.916Z,4.05
2023-04-19T05:20:31.485Z,2.50
2023-04-19T05:23:18.950Z,2.97
2023-04-19T05:26:06.524Z,2.13
2023-04-19T05:28:47.926Z,1.23
2023-04-19T05:31:48.547Z,0.63
2023-04-19T05:34:39.497Z,2.25
2023-04-19T05:37:28.512Z,1.17
2023-04-19T05:40:22.445Z,1.20
2023-04-19T05:43:02.978Z,0.30
2023-04-19T05:45:50.480Z,0.55
2023-04-19T05:48:30.863Z,0.82
2023-04-19T05:51:40.413Z,0.25
2023-04-19T05:54:40.821Z,1.02
2023-04-19T05:57:27.493Z,0.88
2023-04-19T06:00:09.818Z,1.17
2023-04-19T06:03:04.526Z,5.88
2023-04-19T06:05:44.982Z,2.35
2023-04-19T06:08:31.415Z,2.53
2023-04-19T06:11:26.527Z,0.30
2023-04-19T06:14:19.729Z,1.42
2023-04-19T06:17:06.644Z,0.65
2023-04-19T06:19:46.401Z,0.55
2023-04-19T06:22:33.475Z,1.00
2023-04-19T06:25:13.415Z,5.80
2023-04-19T06:27:53.782Z,5.00
2023-04-19T06:30:40.428Z,1.33
2023-04-19T06:33:20.967Z,1.75
2023-04-19T06:36:07.433Z,1.08
2023-04-19T06:38:47.839Z,2.15
2023-04-19T06:41:34.384Z,1.70
2023-04-19T06:44:21.402Z,1.77
2023-04-19T06:47:08.378Z,1.88
2023-04-19T06:49:48.841Z,3.38
2023-04-19T06:52:35.355Z,4.20
2023-04-19T06:55:15.875Z,4.13
2023-04-19T06:58:02.342Z,0.88
2023-04-19T07:00:49.319Z,1.50
2023-04-19T07:03:29.898Z,2.58
2023-04-19T07:06:16.377Z,1.23
2023-04-19T07:08:56.677Z,1.92
2023-04-19T07:11:43.367Z,4.43
2023-04-19T07:14:23.859Z,3.58
2023-04-19T07:17:12.365Z,3.08
2023-04-19T07:19:54.408Z,1.17
2023-04-19T07:22:41.487Z,2.38
2023-04-19T07:25:28.355Z,4.28
2023-04-19T07:40:29.037Z,1.65
2023-04-19T07:43:09.362Z,1.38
2023-04-19T07:45:56.062Z,6.82
2023-04-19T07:48:36.858Z,1.15
2023-04-19T07:51:30.982Z,2.25
2023-04-19T07:54:11.535Z,0.67
2023-04-19T07:56:57.954Z,0.93
2023-04-19T07:59:44.923Z,1.10
2023-04-19T08:02:32.195Z,1.67
2023-04-19T08:05:13.606Z,1.98
2023-04-19T08:08:00.936Z,1.38
2023-04-19T08:10:41.357Z,2.72
2023-04-19T08:13:27.916Z,1.48
2023-04-19T08:16:51.732Z,1.50
2023-04-19T08:19:15.152Z,1.45
2023-04-19T08:22:01.911Z,1.60
2023-04-19T08:24:42.016Z,3.15
2023-04-19T08:27:28.942Z,1.85
2023-04-19T08:30:09.345Z,2.10
2023-04-19T08:32:57.129Z,1.20
2023-04-19T08:35:37.133Z,1.77
2023-04-19T08:38:23.900Z,1.98
2023-04-19T08:41:10.963Z,1.77
2023-04-19T08:43:52.539Z,1.85
2023-04-19T08:46:38.924Z,2.03
2023-04-19T08:49:21.154Z,6.90
2023-04-19T08:52:10.993Z,2.60
2023-04-19T08:54:52.261Z,0.60
2023-04-19T08:57:38.929Z,1.05
2023-04-19T09:00:19.825Z,0.80
2023-04-19T09:03:07.202Z,0.90
2023-04-19T09:05:47.625Z,1.25
2023-04-19T09:08:44.894Z,1.15
2023-04-19T09:11:40.484Z,4.25
2023-04-19T09:14:30.051Z,1.08
2023-04-19T09:17:20.906Z,1.48
2023-04-19T09:20:07.969Z,1.48
2023-04-19T09:23:05.031Z,1.27
2023-04-19T09:29:05.809Z,1.30
2023-04-19T09:31:53.080Z,1.30
2023-04-19T09:34:33.332Z,1.05
2023-04-19T09:40:37.885Z,1.20
2023-04-19T09:43:57.499Z,1.40
2023-04-19T09:46:53.901Z,1.05
2023-04-19T09:49:46.077Z,0.80
2023-04-19T09:58:10.823Z,1.48
2023-04-19T10:01:10.498Z,1.25
2023-04-19T10:04:19.971Z,1.90
2023-04-19T10:07:29.513Z,0.90
2023-04-19T10:10:19.543Z,1.55
2023-04-19T10:13:18.841Z,2.63
2023-04-19T10:16:11.512Z,1.52
2023-04-19T10:18:59.865Z,1.10
2023-04-19T10:21:48.794Z,1.27
2023-04-19T10:24:28.969Z,1.10
2023-04-19T10:27:19.780Z,1.40
2023-04-19T10:30:12.798Z,2.55
2023-04-19T10:33:04.897Z,1.30
2023-04-19T10:35:44.934Z,1.23
2023-04-19T10:38:52.871Z,1.02
2023-04-19T10:42:04.912Z,1.20
2023-04-19T10:45:30.916Z,1.80
2023-04-19T10:48:17.760Z,0.80
2023-04-19T10:50:58.858Z,0.93
2023-04-19T10:54:04.745Z,1.63
2023-04-19T10:57:11.987Z,1.17
2023-04-19T10:59:51.904Z,0.90
2023-04-19T11:02:39.807Z,0.60
2023-04-19T11:05:20.431Z,0.70
2023-04-19T11:08:06.737Z,1.20
2023-04-19T11:10:48.940Z,1.55
2023-04-19T11:13:35.772Z,2.28
2023-04-19T11:16:19.290Z,0.88
2023-04-19T11:19:06.801Z,1.80
2023-04-19T11:21:46.903Z,1.00
2023-04-19T11:24:33.734Z,1.70
2023-04-19T11:27:21.672Z,1.10
2023-04-19T11:30:13.694Z,0.88
2023-04-19T11:32:58.897Z,0.82
2023-04-19T11:35:46.677Z,0.70
2023-04-19T11:38:33.682Z,0.63
2023-04-19T11:41:20.694Z,0.75
2023-04-19T11:44:07.688Z,0.70
2023-04-19T11:47:10.686Z,1.00
2023-04-19T11:49:57.752Z,0.98
2023-04-19T11:52:38.092Z,0.90
2023-04-19T11:55:34.673Z,0.90
2023-04-19T11:58:29.525Z,1.42
2023-04-19T12:01:23.702Z,1.38
2023-04-19T12:04:05.165Z,1.00
2023-04-19T12:06:51.624Z,0.60
2023-04-19T12:09:37.108Z,14.30
2023-04-19T12:12:24.616Z,5.82
2023-04-19T12:15:06.589Z,0.68
2023-04-19T12:18:13.736Z,3.63
2023-04-19T12:20:55.040Z,0.95
2023-04-19T12:23:41.661Z,1.27
2023-04-19T12:26:22.052Z,0.65
2023-04-19T12:29:09.647Z,2.22
2023-04-19T12:31:56.843Z,1.48
2023-04-19T12:34:37.635Z,3.85
2023-04-19T12:37:18.118Z,2.42
2023-04-19T12:40:04.609Z,1.48
2023-04-19T12:42:51.618Z,2.22
2023-04-19T12:45:32.925Z,2.28
2023-04-19T12:48:21.620Z,2.78
2023-04-19T12:51:01.872Z,2.08
2023-04-19T12:53:48.640Z,0.90
2023-04-19T12:56:28.665Z,1.05
2023-04-19T12:59:15.916Z,2.53
2023-04-19T13:01:55.775Z,1.98
2023-04-19T13:04:43.753Z,3.35
2023-04-19T13:07:23.769Z,1.50
2023-04-19T13:10:10.613Z,1.90
2023-04-19T13:12:50.754Z,2.20
2023-04-19T13:15:37.594Z,2.60
2023-04-19T13:18:24.582Z,2.72
2023-04-19T13:21:11.900Z,1.35
2023-04-19T13:23:51.606Z,1.60
2023-04-19T13:26:33.967Z,1.65
2023-04-19T13:29:20.573Z,2.25
2023-04-19T13:32:01.235Z,1.92
2023-04-19T13:34:47.593Z,1.55
2023-04-19T13:37:28.012Z,1.75
2023-04-19T13:40:19.248Z,1.48
2023-04-19T13:43:06.595Z,1.50
2023-04-19T13:45:46.710Z,3.28
2023-04-19T13:48:35.563Z,1.48
2023-04-19T13:51:18.419Z,1.48
2023-04-19T13:54:05.566Z,3.53
2023-04-19T13:56:52.642Z,2.45
2023-04-19T13:59:32.882Z,2.90
2023-04-19T14:02:19.615Z,2.05
2023-04-19T14:05:06.528Z,2.53
2023-04-19T14:07:46.665Z,2.38
2023-04-19T14:10:33.472Z,2.60
2023-04-19T14:13:13.716Z,3.92
2023-04-19T14:16:00.523Z,3.03
2023-04-19T14:18:47.517Z,3.30
2023-04-19T14:21:28.611Z,3.10
2023-04-19T14:24:15.803Z,3.60
2023-04-19T14:27:11.061Z,5.22
2023-04-19T14:29:51.633Z,4.20
2023-04-19T14:32:38.655Z,4.90
2023-04-19T14:35:18.572Z,4.93
2023-04-19T14:38:05.514Z,5.03
2023-04-19T14:41:00.500Z,4.78
2023-04-19T14:43:40.868Z,4.88
2023-04-19T14:46:27.732Z,4.53
2023-04-19T14:49:14.740Z,5.22
2023-04-19T14:52:01.503Z,3.97
2023-04-19T14:54:48.603Z,4.85
2023-04-19T14:57:28.437Z,4.40
2023-04-19T15:00:09.636Z,5.70
2023-04-19T15:02:56.544Z,5.55
2023-04-19T15:05:37.017Z,4.85
2023-04-19T15:08:30.331Z,4.47
2023-04-19T15:11:10.962Z,4.65
2023-04-19T15:13:57.441Z,4.47
2023-04-19T15:16:37.989Z,3.60
2023-04-19T15:19:25.428Z,4.15
2023-04-19T15:22:06.379Z,3.55
2023-04-19T15:24:53.500Z,2.97
2023-04-19T15:27:40.834Z,3.90
2023-04-19T15:30:20.424Z,2.80
2023-04-19T15:33:01.373Z,3.15
2023-04-19T15:35:48.371Z,3.75
2023-04-19T15:38:37.422Z,2.72
2023-04-19T15:41:31.408Z,4.90
2023-04-19T15:44:18.441Z,3.53
2023-04-19T15:47:05.354Z,3.78
2023-04-19T15:49:47.444Z,3.65
2023-04-19T15:52:34.380Z,3.03
2023-04-19T15:55:14.825Z,2.70
2023-04-19T15:58:01.458Z,3.90
2023-04-19T16:00:41.758Z,3.78
2023-04-19T16:03:28.465Z,6.63
2023-04-19T16:06:08.810Z,2.47
2023-04-19T16:08:55.323Z,4.32
2023-04-19T16:11:42.347Z,2.58
2023-04-19T16:14:29.477Z,3.70
2023-04-19T16:17:09.742Z,2.50
2023-04-19T16:19:56.405Z,2.83
2023-04-19T16:22:43.343Z,2.90
2023-04-19T16:25:23.461Z,3.53
2023-04-19T16:28:10.382Z,3.00
2023-04-19T16:30:52.615Z,2.08
2023-04-19T16:33:39.393Z,2.80
2023-04-19T16:36:19.513Z,2.85
2023-04-19T16:39:07.336Z,3.10
2023-04-19T16:41:47.462Z,2.55
2023-04-19T16:44:34.345Z,2.50
2023-04-19T16:47:14.488Z,7.30
2023-04-19T16:50:01.291Z,3.40
2023-04-19T16:52:41.688Z,3.80
2023-04-19T16:55:28.443Z,18.30
2023-04-19T16:58:08.406Z,18.75
2023-04-19T17:00:55.471Z,10.40
2023-04-19T17:03:35.747Z,12.55
2023-04-19T17:06:22.334Z,10.25
2023-04-19T17:09:05.345Z,15.82
2023-04-19T17:11:52.397Z,18.90
2023-04-19T17:14:39.342Z,14.25
2023-04-19T17:17:20.204Z,12.25
2023-04-19T17:20:07.311Z,10.48
2023-04-19T17:22:47.794Z,14.45
2023-04-19T17:25:34.288Z,13.07
2023-04-19T17:28:14.746Z,14.23
2023-04-19T17:31:01.329Z,15.73
2023-04-19T17:33:41.853Z,13.82
2023-04-19T17:36:28.263Z,14.45
2023-04-19T17:39:22.282Z,14.32
2023-04-19T17:42:02.644Z,14.93
2023-04-19T17:44:50.259Z,17.02
2023-04-19T17:47:30.596Z,19.88
2023-04-19T17:50:25.329Z,22.58
2023-04-19T17:53:12.338Z,15.45
2023-04-19T17:55:52.515Z,15.68
2023-04-19T17:58:39.279Z,13.65
2023-04-19T18:01:19.370Z,18.65
2023-04-19T18:04:06.493Z,15.07
2023-04-19T18:06:53.217Z,19.88
2023-04-19T18:09:33.611Z,14.50
2023-04-19T18:12:20.228Z,13.68
2023-04-19T18:15:07.285Z,17.17
2023-04-19T18:17:47.526Z,16.08
2023-04-19T18:20:34.218Z,16.73
2023-04-19T18:23:14.511Z,16.38
2023-04-19T18:26:02.204Z,14.20
2023-04-19T18:28:42.299Z,15.82
2023-04-19T18:31:29.260Z,16.55
2023-04-19T18:34:11.903Z,17.58
2023-04-19T18:37:05.165Z,16.08
2023-04-19T18:39:52.352Z,16.67
2023-04-19T18:42:32.184Z,17.33
2023-04-19T18:45:19.176Z,14.70
2023-04-19T18:48:06.213Z,21.55
2023-04-19T18:50:46.633Z,18.00
2023-04-19T18:53:33.177Z,15.23
2023-04-19T18:56:20.501Z,16.75
2023-04-19T18:59:00.492Z,18.63
2023-04-19T19:01:47.221Z,17.67
2023-04-19T19:10:18.123Z,17.83
2023-04-19T19:13:08.121Z,20.07
2023-04-19T19:15:48.366Z,15.25
2023-04-19T19:18:35.123Z,17.80
2023-04-19T19:21:15.497Z,17.70
2023-04-19T19:24:03.154Z,19.02
2023-04-19T19:26:50.374Z,16.73
2023-04-19T19:42:17.040Z,19.73
2023-04-19T19:45:05.012Z,18.70
2023-04-19T19:47:46.145Z,17.98
2023-04-19T19:51:10.741Z,22.25
2023-04-19T19:53:42.929Z,16.35
2023-04-19T19:56:29.970Z,19.88
2023-04-19T19:59:10.898Z,20.63
2023-04-19T20:01:58.100Z,18.83
2023-04-19T20:04:46.152Z,22.92
2023-04-19T20:07:58.990Z,18.92
2023-04-19T20:10:33.021Z,18.33
2023-04-19T20:13:13.512Z,15.98
2023-04-19T20:15:59.989Z,22.77
2023-04-19T20:18:49.304Z,19.70
2023-04-19T20:21:29.016Z,23.52
2023-04-19T20:24:15.908Z,23.15
2023-04-19T20:26:57.231Z,18.85
2023-04-19T20:29:44.031Z,21.40
2023-04-19T20:32:24.337Z,22.15
2023-04-19T20:35:16.155Z,24.52
2023-04-19T20:38:02.417Z,19.27
2023-04-19T20:40:55.931Z,17.27
2023-04-19T20:43:43.073Z,17.42
2023-04-19T20:46:22.998Z,20.48
2023-04-19T20:49:10.072Z,21.27
2023-04-19T20:51:51.534Z,21.10
2023-04-19T20:54:37.855Z,18.27
2023-04-19T20:57:18.066Z,23.10
2023-04-19T21:00:04.975Z,18.75
2023-04-19T21:02:45.269Z,20.15
2023-04-19T21:05:31.894Z,16.08
2023-04-19T21:08:12.013Z,16.95
2023-04-19T21:10:58.833Z,18.13
2023-04-19T21:13:45.821Z,19.80
2023-04-19T21:16:26.399Z,21.75
2023-04-19T21:19:12.928Z,19.30
2023-04-19T21:21:59.834Z,15.27
2023-04-19T21:24:46.953Z,19.83
2023-04-19T21:27:33.790Z,20.35
2023-04-19T21:30:23.111Z,16.80
2023-04-19T21:33:03.260Z,13.13
2023-04-19T21:35:49.876Z,18.15
2023-04-19T21:38:30.291Z,15.75
2023-04-19T21:41:17.822Z,17.15
2023-04-19T21:43:58.413Z,17.02
2023-04-19T21:46:44.828Z,14.15
2023-04-19T21:49:31.885Z,19.25
2023-04-19T21:52:12.960Z,17.08
2023-04-19T21:54:59.841Z,15.40
2023-04-19T21:57:40.013Z,17.98
2023-04-19T22:00:26.850Z,13.43
2023-04-19T22:03:07.119Z,17.73
2023-04-19T22:05:53.889Z,14.63
2023-04-19T22:08:35.009Z,15.30
2023-04-19T22:11:21.801Z,15.50
2023-04-19T22:14:11.765Z,14.88
2023-04-19T22:17:01.219Z,15.63
2023-04-19T22:19:40.965Z,13.57
2023-04-19T22:22:27.753Z,15.13
2023-04-19T22:25:14.748Z,13.35
2023-04-19T22:27:55.295Z,15.18
2023-04-19T22:30:41.769Z,13.30
2023-04-19T22:33:22.224Z,14.55
2023-04-19T22:36:08.721Z,15.82
2023-04-19T22:38:52.503Z,15.35
2023-04-19T22:42:05.757Z,14.35
2023-04-19T22:44:55.975Z,13.43
2023-04-19T22:47:47.712Z,17.15
2023-04-19T22:50:28.735Z,16.15
2023-04-19T22:53:19.667Z,19.60
2023-04-19T22:56:10.761Z,19.42
2023-04-19T22:59:16.317Z,22.05
2023-04-19T23:02:17.740Z,18.95
2023-04-19T23:08:20.233Z,21.20
2023-04-19T23:11:06.700Z,23.83
2023-04-19T23:13:47.524Z,18.67
2023-04-19T23:16:39.666Z,29.67
2023-04-19T23:19:20.210Z,23.80
2023-04-19T23:22:06.687Z,20.73
2023-04-19T23:24:53.787Z,22.88
2023-04-19T23:27:33.721Z,19.33
2023-04-19T23:30:14.198Z,21.23
2023-04-19T23:33:00.710Z,19.33
2023-04-19T23:35:41.213Z,22.92
2023-04-19T23:38:27.839Z,21.65
2023-04-19T23:41:23.693Z,19.52
2023-04-19T23:44:04.024Z,19.27
2023-04-19T23:46:50.758Z,21.10
2023-04-19T23:49:37.730Z,19.10
2023-04-19T23:52:17.646Z,21.98
2023-04-19T23:54:58.097Z,19.65
2023-04-19T23:57:47.666Z,24.98
